• Join FlightAware (Why Join?)
  • Login
  • US Flag 
05:03AM EDT


 

Airport Tracker/Info


-or-


 

Live Flight TrackerFlight Track Log ✈ N6711L ✈ 15-May-2014 ✈ KAPF - KEYW

Flight Track Log - Related Links

Times and Time Zones

All times are in EDT time to prevent confusion due to time zone crossing. See the N6711L flight status page for this flight to view local times or setup timezone preferences in your user account.

Time Position Orientation Groundspeed Altitude Reporting Facility
EDT Latitude Longitude Course Direction KTS MPH feet Rate Location/Type
02:25PM 26.0997 -81.7836 163° South 109 125 2,000  Level Miami Center
02:26PM 26.0675 -81.7756 167° South 118 136 2,900 900 Climbing Miami Center
02:27PM 26.0283 -81.7708 174° South 124 143 3,900 960 Climbing Miami Center
02:28PM 25.9900 -81.7681 176° South 125 144 4,900 960 Climbing Miami Center
02:29PM 25.9531 -81.7675 179° South 127 146 5,900 960 Climbing Miami Center
02:30PM 25.9836 -81.6418 156° South  Level FlightAware Approximate
02:30PM 25.9128 -81.7689 182° South 135 155 7,000  Level Miami Center
02:31PM 25.9460 -81.6264 163° South  Level FlightAware Approximate
02:31PM 25.8661 -81.7683 179° South 157 181 7,000  Level Miami Center
02:33PM 25.8192 -81.7681 180° South 168 193 7,100  Climbing Miami Center
02:34PM 25.7758 -81.7675 179° South 172 198 7,100  Level Miami Center
02:35PM 25.7189 -81.7669 179° South 173 199 7,100  Level Miami Center
02:36PM 25.6764 -81.7678 181° South 173 199 7,200  Climbing Miami Center
02:37PM 25.6178 -81.7697 182° South 174 200 7,200  Level Miami Center
02:38PM 25.5697 -81.7681 178° South 173 199 7,200 -240 Level Miami Center
02:39PM 25.5200 -81.7678 180° South 174 200 6,700 -360 Descending Miami Center
02:40PM 25.4692 -81.7664 179° South 179 206 6,500 -480 Descending Miami Center
02:41PM 25.4106 -81.7658 180° South 179 206 5,800 -600 Descending Miami Center
02:42PM 25.3567 -81.7667 181° South 183 211 5,300 -540 Descending Miami Center
02:43PM 25.2992 -81.7658 179° South 189 217 4,700 -540 Descending Miami Center
02:44PM 25.2492 -81.7653 179° South 185 213 4,200 -240 Descending Miami Center
02:45PM 25.2008 -81.7644 179° South 184 212 4,200 -60 Level Miami Center
02:46PM 25.1528 -81.7644 180° South 172 198 4,100 -120 Descending Miami Center
02:47PM 25.1061 -81.7642 180° South 170 196 4,000 -60 Descending Miami Center
02:48PM 25.0497 -81.7631 179° South 170 196 4,000 -300 Level Miami Center
02:49PM 25.0011 -81.7475 164° South 176 203 3,400 -480 Descending Miami Center
02:50PM 24.9511 -81.7319 164° South 186 214 3,100 -360 Descending Miami Center
02:51PM 24.9008 -81.7167 165° South 186 214 2,700 -360 Descending Miami Center
02:52PM 24.8531 -81.7017 164° South 185 213 2,400 -360 Descending Miami Center
02:53PM 24.8061 -81.6897 167° South 179 206 2,000 -420 Descending Miami Center
02:54PM 24.7492 -81.6842 175° South 176 203 1,600 -180 Descending Miami Center
02:55PM 24.7061 -81.6789 174° South 167 192 1,700  Climbing Miami Center
02:56PM 24.6619 -81.6744 175° South 162 186 1,700  Level Miami Center
02:57PM 24.6178 -81.6686 173° South 162 186 1,700 -120 Level Miami Center
02:58PM 24.5789 -81.6919 209° Southwest 160 184 1,500 -480 Descending Miami Center
02:59PM 24.5569 -81.7236 233° Southwest 141 162 800 -660 Descending Miami Center
03:00PM 24.5564 -81.7556 269° West 121 139 200 -600 Descending Miami Center
03:02PM 24.5500 -81.7500 180° South  Level FlightAware Approximate